sensor_id;sensor_type;location;lat;lon;timestamp;P1;durP1;ratioP1;P2;durP2;ratioP2
51738;SDS011;37815;52.692;6.226;2022-07-17T00:00:37;3.08;;;1.10;;
51738;SDS011;37815;52.692;6.226;2022-07-17T00:05:42;1.42;;;0.70;;
51738;SDS011;37815;52.692;6.226;2022-07-17T00:10:44;1.10;;;0.75;;
51738;SDS011;37815;52.692;6.226;2022-07-17T00:15:45;1.33;;;0.80;;
51738;SDS011;37815;52.692;6.226;2022-07-17T00:20:46;2.08;;;1.00;;
51738;SDS011;37815;52.692;6.226;2022-07-17T00:25:46;1.17;;;1.00;;
51738;SDS011;37815;52.692;6.226;2022-07-17T00:30:47;2.63;;;0.80;;
51738;SDS011;37815;52.692;6.226;2022-07-17T00:35:48;2.28;;;1.50;;
51738;SDS011;37815;52.692;6.226;2022-07-17T00:40:48;1.60;;;0.70;;
51738;SDS011;37815;52.692;6.226;2022-07-17T00:45:56;1.48;;;1.08;;
51738;SDS011;37815;52.692;6.226;2022-07-17T00:50:58;1.42;;;1.00;;
51738;SDS011;37815;52.692;6.226;2022-07-17T00:56:00;1.23;;;0.80;;
51738;SDS011;37815;52.692;6.226;2022-07-17T01:01:04;1.15;;;0.80;;
51738;SDS011;37815;52.692;6.226;2022-07-17T01:06:08;1.85;;;1.23;;
51738;SDS011;37815;52.692;6.226;2022-07-17T01:11:09;1.88;;;0.90;;
51738;SDS011;37815;52.692;6.226;2022-07-17T01:16:10;1.98;;;0.80;;
51738;SDS011;37815;52.692;6.226;2022-07-17T01:21:10;2.28;;;0.93;;
51738;SDS011;37815;52.692;6.226;2022-07-17T01:26:11;4.75;;;1.00;;
51738;SDS011;37815;52.692;6.226;2022-07-17T01:31:12;0.90;;;0.75;;
51738;SDS011;37815;52.692;6.226;2022-07-17T01:36:13;2.58;;;0.98;;
51738;SDS011;37815;52.692;6.226;2022-07-17T01:41:13;1.80;;;1.15;;
51738;SDS011;37815;52.692;6.226;2022-07-17T01:46:14;3.78;;;1.00;;
51738;SDS011;37815;52.692;6.226;2022-07-17T01:51:15;0.95;;;0.80;;
51738;SDS011;37815;52.692;6.226;2022-07-17T01:56:16;1.48;;;1.00;;
51738;SDS011;37815;52.692;6.226;2022-07-17T02:01:17;2.05;;;1.00;;
51738;SDS011;37815;52.692;6.226;2022-07-17T02:06:18;1.70;;;0.75;;
51738;SDS011;37815;52.692;6.226;2022-07-17T02:11:19;2.55;;;0.77;;
51738;SDS011;37815;52.692;6.226;2022-07-17T02:16:19;1.52;;;0.80;;
51738;SDS011;37815;52.692;6.226;2022-07-17T02:21:20;1.98;;;0.80;;
51738;SDS011;37815;52.692;6.226;2022-07-17T02:26:21;1.63;;;0.77;;
51738;SDS011;37815;52.692;6.226;2022-07-17T02:31:21;1.20;;;0.88;;
51738;SDS011;37815;52.692;6.226;2022-07-17T02:36:22;1.20;;;0.85;;
51738;SDS011;37815;52.692;6.226;2022-07-17T02:41:23;3.45;;;1.00;;
51738;SDS011;37815;52.692;6.226;2022-07-17T02:46:24;1.35;;;0.90;;
51738;SDS011;37815;52.692;6.226;2022-07-17T02:51:24;1.02;;;0.73;;
51738;SDS011;37815;52.692;6.226;2022-07-17T02:56:25;1.60;;;0.95;;
51738;SDS011;37815;52.692;6.226;2022-07-17T03:01:26;3.20;;;1.00;;
51738;SDS011;37815;52.692;6.226;2022-07-17T03:06:26;0.98;;;0.77;;
51738;SDS011;37815;52.692;6.226;2022-07-17T03:11:27;1.48;;;0.80;;
51738;SDS011;37815;52.692;6.226;2022-07-17T03:16:28;1.83;;;0.85;;
51738;SDS011;37815;52.692;6.226;2022-07-17T03:21:28;1.30;;;0.80;;
51738;SDS011;37815;52.692;6.226;2022-07-17T03:26:29;2.35;;;0.65;;
51738;SDS011;37815;52.692;6.226;2022-07-17T03:31:30;0.60;;;0.60;;
51738;SDS011;37815;52.692;6.226;2022-07-17T03:36:30;1.00;;;0.80;;
51738;SDS011;37815;52.692;6.226;2022-07-17T03:41:31;2.28;;;0.82;;
51738;SDS011;37815;52.692;6.226;2022-07-17T03:46:32;1.73;;;1.00;;
51738;SDS011;37815;52.692;6.226;2022-07-17T03:51:33;3.45;;;0.88;;
51738;SDS011;37815;52.692;6.226;2022-07-17T03:56:34;1.02;;;0.90;;
51738;SDS011;37815;52.692;6.226;2022-07-17T04:01:34;2.72;;;1.00;;
51738;SDS011;37815;52.692;6.226;2022-07-17T04:06:35;0.88;;;0.80;;
51738;SDS011;37815;52.692;6.226;2022-07-17T04:11:35;1.40;;;0.93;;
51738;SDS011;37815;52.692;6.226;2022-07-17T04:16:36;2.28;;;1.08;;
51738;SDS011;37815;52.692;6.226;2022-07-17T04:21:37;1.92;;;0.75;;
51738;SDS011;37815;52.692;6.226;2022-07-17T04:26:38;1.00;;;0.80;;
51738;SDS011;37815;52.692;6.226;2022-07-17T04:31:38;1.80;;;0.80;;
51738;SDS011;37815;52.692;6.226;2022-07-17T04:36:39;1.45;;;0.80;;
51738;SDS011;37815;52.692;6.226;2022-07-17T04:41:40;2.15;;;1.08;;
51738;SDS011;37815;52.692;6.226;2022-07-17T04:46:41;1.00;;;0.80;;
51738;SDS011;37815;52.692;6.226;2022-07-17T04:51:41;1.27;;;0.90;;
51738;SDS011;37815;52.692;6.226;2022-07-17T04:56:42;1.08;;;0.80;;
51738;SDS011;37815;52.692;6.226;2022-07-17T05:01:43;1.20;;;1.10;;
51738;SDS011;37815;52.692;6.226;2022-07-17T05:06:43;1.20;;;0.80;;
51738;SDS011;37815;52.692;6.226;2022-07-17T05:11:44;1.70;;;0.80;;
51738;SDS011;37815;52.692;6.226;2022-07-17T05:16:45;1.13;;;0.80;;
51738;SDS011;37815;52.692;6.226;2022-07-17T05:21:45;1.45;;;0.90;;
51738;SDS011;37815;52.692;6.226;2022-07-17T05:26:46;2.22;;;1.42;;
51738;SDS011;37815;52.692;6.226;2022-07-17T05:31:47;3.10;;;1.10;;
51738;SDS011;37815;52.692;6.226;2022-07-17T05:36:48;1.95;;;0.90;;
51738;SDS011;37815;52.692;6.226;2022-07-17T05:41:49;1.23;;;1.02;;
51738;SDS011;37815;52.692;6.226;2022-07-17T05:46:50;2.40;;;0.73;;
51738;SDS011;37815;52.692;6.226;2022-07-17T05:51:50;2.30;;;0.80;;
51738;SDS011;37815;52.692;6.226;2022-07-17T05:56:51;1.63;;;0.80;;
51738;SDS011;37815;52.692;6.226;2022-07-17T06:01:52;2.45;;;0.70;;
51738;SDS011;37815;52.692;6.226;2022-07-17T06:06:53;2.95;;;1.02;;
51738;SDS011;37815;52.692;6.226;2022-07-17T06:11:53;1.17;;;0.85;;
51738;SDS011;37815;52.692;6.226;2022-07-17T06:16:54;1.20;;;0.73;;
51738;SDS011;37815;52.692;6.226;2022-07-17T06:21:55;0.63;;;0.60;;
51738;SDS011;37815;52.692;6.226;2022-07-17T06:26:55;1.40;;;0.80;;
51738;SDS011;37815;52.692;6.226;2022-07-17T06:31:56;2.97;;;1.00;;
51738;SDS011;37815;52.692;6.226;2022-07-17T06:36:57;4.10;;;0.82;;
51738;SDS011;37815;52.692;6.226;2022-07-17T06:41:58;1.00;;;0.70;;
51738;SDS011;37815;52.692;6.226;2022-07-17T06:46:58;1.55;;;0.82;;
51738;SDS011;37815;52.692;6.226;2022-07-17T06:51:59;1.13;;;0.70;;
51738;SDS011;37815;52.692;6.226;2022-07-17T06:57:00;2.00;;;0.75;;
51738;SDS011;37815;52.692;6.226;2022-07-17T07:02:01;3.03;;;1.00;;
51738;SDS011;37815;52.692;6.226;2022-07-17T07:07:01;1.08;;;0.80;;
51738;SDS011;37815;52.692;6.226;2022-07-17T07:12:02;0.70;;;0.65;;
51738;SDS011;37815;52.692;6.226;2022-07-17T07:17:03;2.33;;;0.70;;
51738;SDS011;37815;52.692;6.226;2022-07-17T07:22:05;2.30;;;0.90;;
51738;SDS011;37815;52.692;6.226;2022-07-17T07:27:06;2.88;;;0.75;;
51738;SDS011;37815;52.692;6.226;2022-07-17T07:32:07;4.60;;;0.82;;
51738;SDS011;37815;52.692;6.226;2022-07-17T07:37:07;1.85;;;0.70;;
51738;SDS011;37815;52.692;6.226;2022-07-17T07:42:08;2.65;;;0.70;;
51738;SDS011;37815;52.692;6.226;2022-07-17T07:47:08;3.92;;;0.88;;
51738;SDS011;37815;52.692;6.226;2022-07-17T07:52:09;7.75;;;0.82;;
51738;SDS011;37815;52.692;6.226;2022-07-17T07:57:10;4.88;;;1.20;;
51738;SDS011;37815;52.692;6.226;2022-07-17T08:02:11;3.80;;;1.35;;
51738;SDS011;37815;52.692;6.226;2022-07-17T08:07:11;3.22;;;1.05;;
51738;SDS011;37815;52.692;6.226;2022-07-17T08:12:12;3.10;;;0.93;;
51738;SDS011;37815;52.692;6.226;2022-07-17T08:17:13;3.47;;;0.63;;
51738;SDS011;37815;52.692;6.226;2022-07-17T08:22:13;4.15;;;0.90;;
51738;SDS011;37815;52.692;6.226;2022-07-17T08:27:14;5.10;;;1.23;;
51738;SDS011;37815;52.692;6.226;2022-07-17T08:32:15;4.57;;;0.90;;
51738;SDS011;37815;52.692;6.226;2022-07-17T08:37:16;6.43;;;1.17;;
51738;SDS011;37815;52.692;6.226;2022-07-17T08:42:17;7.32;;;1.20;;
51738;SDS011;37815;52.692;6.226;2022-07-17T08:47:18;5.22;;;0.90;;
51738;SDS011;37815;52.692;6.226;2022-07-17T08:52:21;2.38;;;0.98;;
51738;SDS011;37815;52.692;6.226;2022-07-17T08:57:25;4.15;;;0.85;;
51738;SDS011;37815;52.692;6.226;2022-07-17T09:02:25;4.25;;;0.82;;
51738;SDS011;37815;52.692;6.226;2022-07-17T09:07:26;4.45;;;1.10;;
51738;SDS011;37815;52.692;6.226;2022-07-17T09:12:27;4.32;;;0.60;;
51738;SDS011;37815;52.692;6.226;2022-07-17T09:17:29;1.70;;;0.60;;
51738;SDS011;37815;52.692;6.226;2022-07-17T09:22:30;6.10;;;1.08;;
51738;SDS011;37815;52.692;6.226;2022-07-17T09:27:31;7.47;;;1.05;;
51738;SDS011;37815;52.692;6.226;2022-07-17T09:32:34;7.13;;;0.98;;
51738;SDS011;37815;52.692;6.226;2022-07-17T09:37:37;3.95;;;1.05;;
51738;SDS011;37815;52.692;6.226;2022-07-17T09:42:38;2.45;;;0.95;;
51738;SDS011;37815;52.692;6.226;2022-07-17T09:47:39;6.47;;;1.10;;
51738;SDS011;37815;52.692;6.226;2022-07-17T09:52:40;4.30;;;0.90;;
51738;SDS011;37815;52.692;6.226;2022-07-17T09:57:41;2.42;;;0.70;;
51738;SDS011;37815;52.692;6.226;2022-07-17T10:02:43;5.65;;;1.65;;
51738;SDS011;37815;52.692;6.226;2022-07-17T10:07:45;3.88;;;1.10;;
51738;SDS011;37815;52.692;6.226;2022-07-17T10:12:47;6.07;;;1.30;;
51738;SDS011;37815;52.692;6.226;2022-07-17T10:17:49;3.72;;;1.67;;
51738;SDS011;37815;52.692;6.226;2022-07-17T10:22:50;4.40;;;1.10;;
51738;SDS011;37815;52.692;6.226;2022-07-17T10:27:52;3.78;;;1.00;;
51738;SDS011;37815;52.692;6.226;2022-07-17T10:32:55;3.50;;;0.93;;
51738;SDS011;37815;52.692;6.226;2022-07-17T10:38:10;4.13;;;1.17;;
51738;SDS011;37815;52.692;6.226;2022-07-17T10:43:13;2.30;;;0.90;;
51738;SDS011;37815;52.692;6.226;2022-07-17T10:48:14;2.22;;;1.00;;
51738;SDS011;37815;52.692;6.226;2022-07-17T10:53:17;2.65;;;1.08;;
51738;SDS011;37815;52.692;6.226;2022-07-17T10:58:27;3.25;;;1.13;;
51738;SDS011;37815;52.692;6.226;2022-07-17T11:03:29;2.13;;;0.80;;
51738;SDS011;37815;52.692;6.226;2022-07-17T11:08:30;3.35;;;1.30;;
51738;SDS011;37815;52.692;6.226;2022-07-17T11:13:34;1.75;;;0.80;;
51738;SDS011;37815;52.692;6.226;2022-07-17T11:18:37;1.95;;;1.08;;
51738;SDS011;37815;52.692;6.226;2022-07-17T11:23:51;4.07;;;1.10;;
51738;SDS011;37815;52.692;6.226;2022-07-17T11:28:53;3.13;;;1.20;;
51738;SDS011;37815;52.692;6.226;2022-07-17T11:33:57;2.38;;;1.20;;
51738;SDS011;37815;52.692;6.226;2022-07-17T11:55:21;3.97;;;1.23;;
51738;SDS011;37815;52.692;6.226;2022-07-17T12:00:22;5.97;;;1.13;;
51738;SDS011;37815;52.692;6.226;2022-07-17T12:05:26;4.85;;;1.25;;
51738;SDS011;37815;52.692;6.226;2022-07-17T12:10:29;3.72;;;1.05;;
51738;SDS011;37815;52.692;6.226;2022-07-17T12:15:46;4.30;;;1.25;;
51738;SDS011;37815;52.692;6.226;2022-07-17T12:20:49;5.13;;;1.50;;
51738;SDS011;37815;52.692;6.226;2022-07-17T12:25:51;5.03;;;1.30;;
51738;SDS011;37815;52.692;6.226;2022-07-17T12:31:22;4.75;;;1.42;;
51738;SDS011;37815;52.692;6.226;2022-07-17T12:36:26;4.50;;;1.65;;
51738;SDS011;37815;52.692;6.226;2022-07-17T12:41:27;2.78;;;1.38;;
51738;SDS011;37815;52.692;6.226;2022-07-17T12:46:27;3.78;;;1.60;;
51738;SDS011;37815;52.692;6.226;2022-07-17T12:51:28;3.40;;;1.52;;
51738;SDS011;37815;52.692;6.226;2022-07-17T12:56:30;4.63;;;1.40;;
51738;SDS011;37815;52.692;6.226;2022-07-17T13:01:30;3.13;;;1.73;;
51738;SDS011;37815;52.692;6.226;2022-07-17T13:06:31;4.50;;;1.55;;
51738;SDS011;37815;52.692;6.226;2022-07-17T13:11:33;5.70;;;1.77;;
51738;SDS011;37815;52.692;6.226;2022-07-17T13:16:33;3.13;;;1.48;;
51738;SDS011;37815;52.692;6.226;2022-07-17T13:21:34;3.83;;;1.50;;
51738;SDS011;37815;52.692;6.226;2022-07-17T13:26:35;3.42;;;1.38;;
51738;SDS011;37815;52.692;6.226;2022-07-17T13:31:36;3.45;;;1.50;;
51738;SDS011;37815;52.692;6.226;2022-07-17T13:36:37;4.35;;;1.85;;
51738;SDS011;37815;52.692;6.226;2022-07-17T13:41:38;6.32;;;1.90;;
51738;SDS011;37815;52.692;6.226;2022-07-17T13:46:39;5.25;;;1.50;;
51738;SDS011;37815;52.692;6.226;2022-07-17T13:51:40;2.70;;;1.30;;
51738;SDS011;37815;52.692;6.226;2022-07-17T13:56:41;2.75;;;1.50;;
51738;SDS011;37815;52.692;6.226;2022-07-17T14:01:42;3.47;;;1.50;;
51738;SDS011;37815;52.692;6.226;2022-07-17T14:06:42;2.90;;;1.50;;
51738;SDS011;37815;52.692;6.226;2022-07-17T14:11:44;5.18;;;1.77;;
51738;SDS011;37815;52.692;6.226;2022-07-17T14:16:44;6.25;;;1.88;;
51738;SDS011;37815;52.692;6.226;2022-07-17T14:21:45;3.70;;;1.60;;
51738;SDS011;37815;52.692;6.226;2022-07-17T14:26:46;7.10;;;2.00;;
51738;SDS011;37815;52.692;6.226;2022-07-17T14:31:48;4.70;;;1.77;;
51738;SDS011;37815;52.692;6.226;2022-07-17T14:36:48;10.30;;;2.20;;
51738;SDS011;37815;52.692;6.226;2022-07-17T14:41:49;5.55;;;1.83;;
51738;SDS011;37815;52.692;6.226;2022-07-17T14:46:50;4.53;;;1.88;;
51738;SDS011;37815;52.692;6.226;2022-07-17T14:51:50;3.80;;;2.08;;
51738;SDS011;37815;52.692;6.226;2022-07-17T14:56:51;3.67;;;2.10;;
51738;SDS011;37815;52.692;6.226;2022-07-17T15:01:52;4.78;;;2.20;;
51738;SDS011;37815;52.692;6.226;2022-07-17T15:06:53;3.63;;;2.08;;
51738;SDS011;37815;52.692;6.226;2022-07-17T15:11:54;4.60;;;2.15;;
51738;SDS011;37815;52.692;6.226;2022-07-17T15:16:55;4.70;;;2.67;;
51738;SDS011;37815;52.692;6.226;2022-07-17T15:21:55;4.13;;;2.22;;
51738;SDS011;37815;52.692;6.226;2022-07-17T15:26:56;6.18;;;2.72;;
51738;SDS011;37815;52.692;6.226;2022-07-17T15:31:57;4.55;;;2.53;;
51738;SDS011;37815;52.692;6.226;2022-07-17T15:36:58;5.70;;;3.58;;
51738;SDS011;37815;52.692;6.226;2022-07-17T15:41:58;5.00;;;2.65;;
51738;SDS011;37815;52.692;6.226;2022-07-17T15:47:05;4.90;;;2.40;;
51738;SDS011;37815;52.692;6.226;2022-07-17T15:52:06;7.47;;;2.50;;
51738;SDS011;37815;52.692;6.226;2022-07-17T15:57:07;3.50;;;2.05;;
51738;SDS011;37815;52.692;6.226;2022-07-17T16:02:07;5.20;;;2.40;;
51738;SDS011;37815;52.692;6.226;2022-07-17T16:07:08;5.55;;;2.85;;
51738;SDS011;37815;52.692;6.226;2022-07-17T16:12:09;5.47;;;2.58;;
51738;SDS011;37815;52.692;6.226;2022-07-17T16:17:09;7.47;;;2.70;;
51738;SDS011;37815;52.692;6.226;2022-07-17T16:22:10;4.90;;;2.60;;
51738;SDS011;37815;52.692;6.226;2022-07-17T16:27:11;8.00;;;2.75;;
51738;SDS011;37815;52.692;6.226;2022-07-17T16:32:11;5.57;;;3.60;;
51738;SDS011;37815;52.692;6.226;2022-07-17T16:37:12;6.78;;;2.47;;
51738;SDS011;37815;52.692;6.226;2022-07-17T16:42:13;5.93;;;2.95;;
51738;SDS011;37815;52.692;6.226;2022-07-17T16:47:13;6.10;;;2.80;;
51738;SDS011;37815;52.692;6.226;2022-07-17T16:52:14;6.82;;;2.83;;
51738;SDS011;37815;52.692;6.226;2022-07-17T16:57:15;7.72;;;2.63;;
51738;SDS011;37815;52.692;6.226;2022-07-17T17:02:16;5.55;;;2.72;;
51738;SDS011;37815;52.692;6.226;2022-07-17T17:07:17;11.00;;;2.58;;
51738;SDS011;37815;52.692;6.226;2022-07-17T17:12:17;7.82;;;2.95;;
51738;SDS011;37815;52.692;6.226;2022-07-17T17:17:18;6.07;;;2.75;;
51738;SDS011;37815;52.692;6.226;2022-07-17T17:22:19;8.10;;;2.83;;
51738;SDS011;37815;52.692;6.226;2022-07-17T17:27:20;6.38;;;2.58;;
51738;SDS011;37815;52.692;6.226;2022-07-17T17:32:21;7.55;;;2.83;;
51738;SDS011;37815;52.692;6.226;2022-07-17T17:37:22;5.20;;;2.50;;
51738;SDS011;37815;52.692;6.226;2022-07-17T17:42:22;7.75;;;2.47;;
51738;SDS011;37815;52.692;6.226;2022-07-17T17:47:23;4.18;;;2.33;;
51738;SDS011;37815;52.692;6.226;2022-07-17T17:52:24;4.70;;;2.55;;
51738;SDS011;37815;52.692;6.226;2022-07-17T17:57:25;4.75;;;2.60;;
51738;SDS011;37815;52.692;6.226;2022-07-17T18:02:25;4.28;;;2.55;;
51738;SDS011;37815;52.692;6.226;2022-07-17T18:07:26;4.15;;;2.40;;
51738;SDS011;37815;52.692;6.226;2022-07-17T18:12:27;3.42;;;2.20;;
51738;SDS011;37815;52.692;6.226;2022-07-17T18:17:28;4.90;;;2.40;;
51738;SDS011;37815;52.692;6.226;2022-07-17T18:22:28;7.95;;;2.65;;
51738;SDS011;37815;52.692;6.226;2022-07-17T18:27:29;3.88;;;2.30;;
51738;SDS011;37815;52.692;6.226;2022-07-17T18:32:30;8.07;;;2.80;;
51738;SDS011;37815;52.692;6.226;2022-07-17T18:37:31;5.38;;;2.50;;
51738;SDS011;37815;52.692;6.226;2022-07-17T18:42:33;4.05;;;2.80;;
51738;SDS011;37815;52.692;6.226;2022-07-17T18:47:33;3.83;;;2.45;;
51738;SDS011;37815;52.692;6.226;2022-07-17T18:52:34;6.60;;;2.33;;
51738;SDS011;37815;52.692;6.226;2022-07-17T18:57:35;2.72;;;1.65;;
51738;SDS011;37815;52.692;6.226;2022-07-17T19:02:36;3.95;;;2.42;;
51738;SDS011;37815;52.692;6.226;2022-07-17T19:07:39;4.93;;;2.28;;
51738;SDS011;37815;52.692;6.226;2022-07-17T19:12:40;3.28;;;2.45;;
51738;SDS011;37815;52.692;6.226;2022-07-17T19:17:40;6.20;;;2.13;;
51738;SDS011;37815;52.692;6.226;2022-07-17T19:22:42;3.53;;;2.08;;
51738;SDS011;37815;52.692;6.226;2022-07-17T19:27:43;4.10;;;2.42;;
51738;SDS011;37815;52.692;6.226;2022-07-17T19:32:44;3.45;;;2.25;;
51738;SDS011;37815;52.692;6.226;2022-07-17T19:37:44;4.15;;;2.35;;
51738;SDS011;37815;52.692;6.226;2022-07-17T19:42:45;5.82;;;2.97;;
51738;SDS011;37815;52.692;6.226;2022-07-17T19:47:46;4.63;;;2.20;;
51738;SDS011;37815;52.692;6.226;2022-07-17T19:52:46;5.50;;;2.55;;
51738;SDS011;37815;52.692;6.226;2022-07-17T19:57:47;3.53;;;1.88;;
51738;SDS011;37815;52.692;6.226;2022-07-17T20:02:48;3.58;;;2.08;;
51738;SDS011;37815;52.692;6.226;2022-07-17T20:07:48;3.67;;;2.20;;
51738;SDS011;37815;52.692;6.226;2022-07-17T20:12:49;6.05;;;3.13;;
51738;SDS011;37815;52.692;6.226;2022-07-17T20:17:52;3.47;;;1.95;;
51738;SDS011;37815;52.692;6.226;2022-07-17T20:22:52;4.15;;;2.38;;
51738;SDS011;37815;52.692;6.226;2022-07-17T20:27:53;5.05;;;2.38;;
51738;SDS011;37815;52.692;6.226;2022-07-17T20:32:54;4.32;;;2.55;;
51738;SDS011;37815;52.692;6.226;2022-07-17T20:37:54;4.82;;;2.40;;
51738;SDS011;37815;52.692;6.226;2022-07-17T20:42:55;4.35;;;2.30;;
51738;SDS011;37815;52.692;6.226;2022-07-17T20:47:56;4.88;;;2.60;;
51738;SDS011;37815;52.692;6.226;2022-07-17T20:52:57;4.00;;;2.33;;
51738;SDS011;37815;52.692;6.226;2022-07-17T20:57:58;3.97;;;2.35;;
51738;SDS011;37815;52.692;6.226;2022-07-17T21:02:58;4.68;;;2.20;;
51738;SDS011;37815;52.692;6.226;2022-07-17T21:07:59;3.75;;;2.13;;
51738;SDS011;37815;52.692;6.226;2022-07-17T21:13:00;4.15;;;2.28;;
51738;SDS011;37815;52.692;6.226;2022-07-17T21:18:01;3.67;;;2.10;;
51738;SDS011;37815;52.692;6.226;2022-07-17T21:23:01;4.25;;;2.22;;
51738;SDS011;37815;52.692;6.226;2022-07-17T21:28:02;3.90;;;2.05;;
51738;SDS011;37815;52.692;6.226;2022-07-17T21:33:03;3.95;;;2.28;;
51738;SDS011;37815;52.692;6.226;2022-07-17T21:38:04;3.90;;;2.40;;
51738;SDS011;37815;52.692;6.226;2022-07-17T21:43:05;5.10;;;2.28;;
51738;SDS011;37815;52.692;6.226;2022-07-17T21:48:06;4.18;;;2.55;;
51738;SDS011;37815;52.692;6.226;2022-07-17T21:53:06;3.40;;;2.10;;
51738;SDS011;37815;52.692;6.226;2022-07-17T21:58:07;4.82;;;2.60;;
51738;SDS011;37815;52.692;6.226;2022-07-17T22:03:08;4.15;;;2.72;;
51738;SDS011;37815;52.692;6.226;2022-07-17T22:08:09;4.20;;;2.50;;
51738;SDS011;37815;52.692;6.226;2022-07-17T22:13:10;4.65;;;2.70;;
51738;SDS011;37815;52.692;6.226;2022-07-17T22:18:11;4.32;;;2.92;;
51738;SDS011;37815;52.692;6.226;2022-07-17T22:23:12;5.40;;;2.80;;
51738;SDS011;37815;52.692;6.226;2022-07-17T22:28:14;4.93;;;2.88;;
51738;SDS011;37815;52.692;6.226;2022-07-17T22:33:15;4.93;;;2.65;;
51738;SDS011;37815;52.692;6.226;2022-07-17T22:38:15;4.25;;;2.70;;
51738;SDS011;37815;52.692;6.226;2022-07-17T22:43:16;4.70;;;2.92;;
51738;SDS011;37815;52.692;6.226;2022-07-17T22:48:17;6.13;;;2.80;;
51738;SDS011;37815;52.692;6.226;2022-07-17T22:53:18;4.72;;;2.70;;
51738;SDS011;37815;52.692;6.226;2022-07-17T22:58:19;5.07;;;2.60;;
51738;SDS011;37815;52.692;6.226;2022-07-17T23:03:19;5.32;;;2.70;;
51738;SDS011;37815;52.692;6.226;2022-07-17T23:08:20;4.68;;;2.70;;
51738;SDS011;37815;52.692;6.226;2022-07-17T23:13:21;5.00;;;3.00;;
51738;SDS011;37815;52.692;6.226;2022-07-17T23:18:22;4.82;;;2.97;;
51738;SDS011;37815;52.692;6.226;2022-07-17T23:23:23;4.55;;;2.72;;
51738;SDS011;37815;52.692;6.226;2022-07-17T23:28:23;5.47;;;2.80;;
51738;SDS011;37815;52.692;6.226;2022-07-17T23:33:24;4.82;;;2.80;;
51738;SDS011;37815;52.692;6.226;2022-07-17T23:38:25;3.88;;;2.60;;
51738;SDS011;37815;52.692;6.226;2022-07-17T23:43:26;6.05;;;3.10;;
51738;SDS011;37815;52.692;6.226;2022-07-17T23:48:26;4.53;;;2.80;;
51738;SDS011;37815;52.692;6.226;2022-07-17T23:53:27;3.88;;;2.50;;
51738;SDS011;37815;52.692;6.226;2022-07-17T23:58:28;5.78;;;3.30;;
